Time;durP1;ratioP1;P1;durP2;ratioP2;P2;SDS_P1;SDS_P2;PMS_P1;PMS_P2;Temp;Humidity;BMP_temperature;BMP_pressure;BME280_temperature;BME280_humidity;BME280_pressure;Samples;Min_cycle;Max_cycle;Signal;HPM_P1;HPM_P2
2022/09/30 00:00:27;;;;;;;6.72;4.20;;;;;;;;;;1746899;81;21078;-65
2022/09/30 00:02:54;;;;;;;7.85;4.67;;;;;;;;;;1746301;82;21029;-66
2022/09/30 00:05:19;;;;;;;6.10;4.15;;;;;;;;;;1748091;81;21026;-66
2022/09/30 00:07:46;;;;;;;7.72;4.62;;;;;;;;;;1747318;81;21003;-66
2022/09/30 00:11:18;;;;;;;5.55;4.33;;;;;;;;;;1778647;79;23011;-66
2022/09/30 00:13:45;;;;;;;8.63;4.47;;;;;;;;;;1774180;79;21087;-67
2022/09/30 00:16:11;;;;;;;9.63;5.00;;;;;;;;;;1774025;80;21281;-66
2022/09/30 00:18:37;;;;;;;7.15;5.33;;;;;;;;;;1785678;79;21126;-66
2022/09/30 00:21:04;;;;;;;7.92;5.08;;;;;;;;;;1786584;79;21496;-66
2022/09/30 00:23:30;;;;;;;8.75;4.42;;;;;;;;;;1782571;79;21011;-67
2022/09/30 00:26:00;;;;;;;7.35;4.35;;;;;;;;;;1784985;79;21612;-65
2022/09/30 00:28:27;;;;;;;8.60;5.03;;;;;;;;;;1781742;79;21050;-65
2022/09/30 00:30:53;;;;;;;9.33;4.62;;;;;;;;;;1782092;79;21021;-65
2022/09/30 00:33:20;;;;;;;6.60;4.15;;;;;;;;;;1788631;79;20985;-66
2022/09/30 00:35:46;;;;;;;6.78;4.42;;;;;;;;;;1778198;79;21082;-66
2022/09/30 00:38:12;;;;;;;12.40;5.00;;;;;;;;;;1783044;79;21122;-66
2022/09/30 00:40:38;;;;;;;7.05;4.30;;;;;;;;;;1785053;79;21384;-68
2022/09/30 00:43:13;;;;;;;5.75;3.83;;;;;;;;;;1780329;79;21067;-67
2022/09/30 00:45:39;;;;;;;6.90;4.30;;;;;;;;;;1786582;79;21090;-67
2022/09/30 00:48:07;;;;;;;9.03;3.85;;;;;;;;;;1781375;79;21004;-66
2022/09/30 00:50:35;;;;;;;6.87;4.10;;;;;;;;;;1787558;79;21095;-67
2022/09/30 00:53:09;;;;;;;5.90;3.70;;;;;;;;;;1782006;79;21099;-67
2022/09/30 00:55:40;;;;;;;5.60;4.20;;;;;;;;;;1747634;79;21081;-66
2022/09/30 00:58:07;;;;;;;8.08;4.33;;;;;;;;;;1772952;78;21020;-66
2022/09/30 01:03:31;;;;;;;7.90;5.30;;;;;;;;;;1729861;78;21187;-65
2022/09/30 01:05:57;;;;;;;8.30;4.15;;;;;;;;;;1670787;84;21020;-66
2022/09/30 01:08:23;;;;;;;9.40;4.80;;;;;;;;;;1664354;83;21611;-66
2022/09/30 01:10:49;;;;;;;6.85;4.22;;;;;;;;;;1679773;84;21330;-66
2022/09/30 01:13:16;;;;;;;6.62;4.50;;;;;;;;;;1672463;84;21056;-66
2022/09/30 01:15:56;;;;;;;6.37;4.05;;;;;;;;;;1649765;85;21032;-66
2022/09/30 01:18:27;;;;;;;6.22;4.22;;;;;;;;;;1663642;84;21076;-66
2022/09/30 01:21:11;;;;;;;9.00;4.40;;;;;;;;;;1667366;84;21056;-66
2022/09/30 01:23:48;;;;;;;7.10;4.10;;;;;;;;;;1667323;84;21072;-66
2022/09/30 01:26:19;;;;;;;7.50;4.62;;;;;;;;;;1617033;86;21083;-66
2022/09/30 01:28:50;;;;;;;8.05;4.60;;;;;;;;;;1643311;85;21128;-66
2022/09/30 01:31:42;;;;;;;6.83;4.65;;;;;;;;;;1675168;83;21072;-66
2022/09/30 01:34:18;;;;;;;8.13;4.25;;;;;;;;;;1668241;83;21036;-65
2022/09/30 01:36:49;;;;;;;6.58;4.03;;;;;;;;;;1661190;83;21388;-65
2022/09/30 01:39:17;;;;;;;8.03;4.00;;;;;;;;;;1676612;83;21084;-65
2022/09/30 01:41:45;;;;;;;6.42;3.85;;;;;;;;;;1665983;83;21129;-65
2022/09/30 01:44:28;;;;;;;7.17;4.05;;;;;;;;;;1667355;84;21128;-65
2022/09/30 01:46:56;;;;;;;5.40;3.95;;;;;;;;;;1646845;85;21580;-65
2022/09/30 01:49:24;;;;;;;5.35;3.77;;;;;;;;;;1613054;86;21065;-65
2022/09/30 01:51:52;;;;;;;6.25;3.87;;;;;;;;;;1675100;84;21097;-65
2022/09/30 01:54:23;;;;;;;6.25;3.90;;;;;;;;;;1671306;83;21069;-66
2022/09/30 01:56:51;;;;;;;5.60;4.00;;;;;;;;;;1674465;83;21126;-65
2022/09/30 01:59:19;;;;;;;6.80;4.40;;;;;;;;;;1667261;83;21079;-67
2022/09/30 02:02:06;;;;;;;6.10;4.05;;;;;;;;;;1665080;84;21020;-66
2022/09/30 02:04:36;;;;;;;6.58;4.10;;;;;;;;;;1648546;84;21682;-66
2022/09/30 02:07:05;;;;;;;7.12;4.47;;;;;;;;;;1647717;84;21061;-66
2022/09/30 02:09:35;;;;;;;5.60;4.12;;;;;;;;;;1640213;85;21096;-66
2022/09/30 02:12:02;;;;;;;7.90;4.50;;;;;;;;;;1621845;86;21065;-65
2022/09/30 02:14:36;;;;;;;9.00;4.78;;;;;;;;;;1601528;87;21045;-67
2022/09/30 02:17:04;;;;;;;8.08;4.10;;;;;;;;;;1627758;85;21048;-66
2022/09/30 02:19:35;;;;;;;10.70;4.58;;;;;;;;;;1623699;85;21100;-66
2022/09/30 02:22:07;;;;;;;8.18;4.45;;;;;;;;;;1627946;84;21080;-66
2022/09/30 02:24:35;;;;;;;7.87;4.80;;;;;;;;;;1645148;84;21080;-66
2022/09/30 02:27:02;;;;;;;10.23;4.95;;;;;;;;;;1603206;88;21073;-66
2022/09/30 02:29:29;;;;;;;8.23;4.35;;;;;;;;;;1610145;87;21152;-67
2022/09/30 02:31:59;;;;;;;8.00;4.60;;;;;;;;;;1633639;85;21100;-67
2022/09/30 02:34:26;;;;;;;8.58;4.72;;;;;;;;;;1645276;84;21572;-67
2022/09/30 02:36:57;;;;;;;7.55;4.90;;;;;;;;;;1645263;84;21360;-65
2022/09/30 02:39:25;;;;;;;6.08;4.33;;;;;;;;;;1643299;84;21036;-66
2022/09/30 02:41:53;;;;;;;6.83;4.20;;;;;;;;;;1648309;84;21040;-65
2022/09/30 02:44:19;;;;;;;8.90;4.80;;;;;;;;;;1644815;85;21089;-65
2022/09/30 02:47:03;;;;;;;7.97;4.83;;;;;;;;;;1637288;85;21088;-65
2022/09/30 02:49:31;;;;;;;7.58;4.50;;;;;;;;;;1613480;87;21040;-65
2022/09/30 02:52:08;;;;;;;8.35;4.42;;;;;;;;;;1577361;88;22624;-64
2022/09/30 02:54:43;;;;;;;6.17;4.50;;;;;;;;;;1647811;85;21088;-64
2022/09/30 02:57:17;;;;;;;8.23;4.83;;;;;;;;;;1648809;84;21067;-66
2022/09/30 02:59:42;;;;;;;7.53;4.60;;;;;;;;;;1637250;84;21399;-66
2022/09/30 03:02:08;;;;;;;7.17;4.55;;;;;;;;;;1643210;85;21160;-65
2022/09/30 03:04:34;;;;;;;8.23;4.58;;;;;;;;;;1648438;84;21119;-66
2022/09/30 03:07:01;;;;;;;6.22;4.25;;;;;;;;;;1639313;85;21111;-65
2022/09/30 03:09:27;;;;;;;8.78;4.30;;;;;;;;;;1613871;85;21827;-66
2022/09/30 03:11:56;;;;;;;6.83;4.75;;;;;;;;;;1655479;84;22336;-66
2022/09/30 03:14:27;;;;;;;8.18;4.80;;;;;;;;;;1645070;85;21575;-65
2022/09/30 03:17:01;;;;;;;7.58;5.30;;;;;;;;;;1653835;84;21165;-64
2022/09/30 03:19:32;;;;;;;6.60;4.20;;;;;;;;;;1639933;85;21111;-65
2022/09/30 03:22:00;;;;;;;7.80;4.83;;;;;;;;;;1645171;85;21114;-65
2022/09/30 03:24:34;;;;;;;9.33;4.90;;;;;;;;;;1617624;87;21084;-65
2022/09/30 03:27:05;;;;;;;7.47;5.60;;;;;;;;;;1637545;85;21567;-65
2022/09/30 03:29:34;;;;;;;10.00;5.60;;;;;;;;;;1636214;85;21119;-66
2022/09/30 03:32:07;;;;;;;8.95;5.67;;;;;;;;;;1641376;85;21049;-66
2022/09/30 03:34:39;;;;;;;10.98;6.50;;;;;;;;;;1614532;87;21141;-64
2022/09/30 03:37:17;;;;;;;10.28;6.15;;;;;;;;;;1639290;84;22295;-64
2022/09/30 03:39:45;;;;;;;8.08;5.60;;;;;;;;;;1533957;91;21086;-65
2022/09/30 03:42:16;;;;;;;9.55;6.45;;;;;;;;;;1651395;84;21060;-65
2022/09/30 03:44:50;;;;;;;9.70;6.08;;;;;;;;;;1651581;85;21137;-63
2022/09/30 03:47:16;;;;;;;9.35;6.00;;;;;;;;;;1615576;87;21125;-63
2022/09/30 03:49:43;;;;;;;11.80;5.85;;;;;;;;;;1653930;84;21995;-64
2022/09/30 03:52:10;;;;;;;8.48;5.70;;;;;;;;;;1628544;85;21152;-64
2022/09/30 03:54:47;;;;;;;8.13;5.72;;;;;;;;;;1646789;85;21044;-64
2022/09/30 03:57:13;;;;;;;8.20;4.85;;;;;;;;;;1649543;84;21063;-64
2022/09/30 03:59:39;;;;;;;9.58;5.78;;;;;;;;;;1646806;84;21103;-64
2022/09/30 04:02:12;;;;;;;6.67;5.15;;;;;;;;;;1654264;84;21098;-63
2022/09/30 04:04:33;;;;;;;8.33;5.92;;;;;;;;;;1646465;85;21021;-64
2022/09/30 04:07:00;;;;;;;8.38;5.30;;;;;;;;;;1638591;86;21013;-64
2022/09/30 04:09:26;;;;;;;8.53;5.67;;;;;;;;;;1640572;85;21829;-64
2022/09/30 04:11:54;;;;;;;8.53;5.67;;;;;;;;;;1643939;85;21221;-64
2022/09/30 04:14:20;;;;;;;7.67;5.37;;;;;;;;;;1643716;85;21095;-65
2022/09/30 04:16:46;;;;;;;6.20;4.62;;;;;;;;;;1647653;84;22288;-64
2022/09/30 04:19:12;;;;;;;7.45;5.60;;;;;;;;;;1639756;85;21039;-64
2022/09/30 04:21:38;;;;;;;7.47;5.22;;;;;;;;;;1648077;84;21067;-65
2022/09/30 04:24:05;;;;;;;7.47;5.35;;;;;;;;;;1653709;84;21012;-65
2022/09/30 04:26:31;;;;;;;6.70;5.03;;;;;;;;;;1644760;85;21160;-64
2022/09/30 04:28:57;;;;;;;7.78;6.28;;;;;;;;;;1652827;84;21117;-65
2022/09/30 04:31:23;;;;;;;7.40;5.45;;;;;;;;;;1615162;86;21756;-69
2022/09/30 04:33:49;;;;;;;8.40;5.72;;;;;;;;;;1652520;84;21069;-69
2022/09/30 04:36:15;;;;;;;7.50;5.90;;;;;;;;;;1634063;85;21033;-71
2022/09/30 04:38:42;;;;;;;6.40;5.08;;;;;;;;;;1643751;85;21088;-69
2022/09/30 04:41:10;;;;;;;7.42;5.67;;;;;;;;;;1615648;86;21208;-69
2022/09/30 04:43:35;;;;;;;7.83;5.78;;;;;;;;;;1650067;84;21059;-68
2022/09/30 04:46:03;;;;;;;7.90;6.10;;;;;;;;;;1651720;84;22234;-65
2022/09/30 04:48:30;;;;;;;8.43;6.40;;;;;;;;;;1643591;84;21067;-64
2022/09/30 04:50:58;;;;;;;8.95;6.40;;;;;;;;;;1642615;85;21099;-64
2022/09/30 04:53:24;;;;;;;8.10;5.92;;;;;;;;;;1653191;84;21045;-64
2022/09/30 04:55:50;;;;;;;7.40;5.87;;;;;;;;;;1622228;87;21143;-65
2022/09/30 04:58:17;;;;;;;9.00;6.72;;;;;;;;;;1602842;86;21081;-64
2022/09/30 05:00:43;;;;;;;12.60;6.67;;;;;;;;;;1640853;84;21096;-65
2022/09/30 05:03:10;;;;;;;8.95;6.58;;;;;;;;;;1639143;85;21826;-64
2022/09/30 05:05:36;;;;;;;7.97;5.78;;;;;;;;;;1635580;86;21083;-65
2022/09/30 05:08:03;;;;;;;9.05;6.25;;;;;;;;;;1643521;86;21023;-65
2022/09/30 05:10:31;;;;;;;8.78;6.80;;;;;;;;;;1635368;85;21024;-65
2022/09/30 05:12:58;;;;;;;9.70;6.65;;;;;;;;;;1639938;85;21072;-65
2022/09/30 05:15:24;;;;;;;7.58;6.45;;;;;;;;;;1654965;84;21583;-66
2022/09/30 05:17:51;;;;;;;8.70;6.72;;;;;;;;;;1647985;85;21056;-66
2022/09/30 05:20:17;;;;;;;9.60;7.08;;;;;;;;;;1644302;85;21071;-66
2022/09/30 05:22:43;;;;;;;10.08;7.22;;;;;;;;;;1649828;84;21079;-65
2022/09/30 05:25:10;;;;;;;8.95;6.42;;;;;;;;;;1618929;86;21112;-66
2022/09/30 05:27:36;;;;;;;10.10;7.55;;;;;;;;;;1590627;88;21063;-65
2022/09/30 05:30:03;;;;;;;23.80;15.72;;;;;;;;;;1636204;85;21096;-66
2022/09/30 05:32:30;;;;;;;10.50;7.70;;;;;;;;;;1640909;85;21822;-64
2022/09/30 05:34:57;;;;;;;8.38;6.58;;;;;;;;;;1641052;86;21040;-65
2022/09/30 05:37:23;;;;;;;11.03;6.90;;;;;;;;;;1645194;85;21164;-65
2022/09/30 05:39:49;;;;;;;10.25;7.10;;;;;;;;;;1649745;85;21044;-65
2022/09/30 05:42:16;;;;;;;10.88;6.95;;;;;;;;;;1655890;84;21056;-65
2022/09/30 05:44:43;;;;;;;7.78;5.58;;;;;;;;;;1641825;84;21065;-64
2022/09/30 05:47:10;;;;;;;9.18;6.35;;;;;;;;;;1651194;85;21094;-65
2022/09/30 05:49:40;;;;;;;9.23;7.30;;;;;;;;;;1648018;84;21081;-65
2022/09/30 05:52:06;;;;;;;9.83;7.35;;;;;;;;;;1653212;84;21092;-65
2022/09/30 05:54:32;;;;;;;11.70;7.75;;;;;;;;;;1650129;85;21107;-66
2022/09/30 05:56:59;;;;;;;9.63;7.55;;;;;;;;;;1619788;86;21101;-65
2022/09/30 05:59:25;;;;;;;10.85;7.85;;;;;;;;;;1636469;85;21064;-65
2022/09/30 06:01:52;;;;;;;10.30;7.72;;;;;;;;;;1616247;86;21081;-66
2022/09/30 06:04:20;;;;;;;9.10;7.00;;;;;;;;;;1646631;84;21068;-65
2022/09/30 06:06:47;;;;;;;9.78;8.05;;;;;;;;;;1640138;84;21568;-64
2022/09/30 06:09:13;;;;;;;10.70;7.85;;;;;;;;;;1611733;86;21101;-65
2022/09/30 06:11:41;;;;;;;11.10;7.62;;;;;;;;;;1636590;85;21088;-66
2022/09/30 06:14:08;;;;;;;11.60;8.90;;;;;;;;;;1637842;86;21107;-66
2022/09/30 06:16:34;;;;;;;12.73;8.43;;;;;;;;;;1630445;87;21127;-65
2022/09/30 06:19:00;;;;;;;12.93;9.00;;;;;;;;;;1632572;87;21133;-66
2022/09/30 06:21:27;;;;;;;12.13;8.88;;;;;;;;;;1632501;87;21053;-66
2022/09/30 06:23:54;;;;;;;14.83;8.75;;;;;;;;;;1631431;87;21555;-66
2022/09/30 06:26:21;;;;;;;11.38;8.55;;;;;;;;;;1633637;86;21127;-66
2022/09/30 06:28:49;;;;;;;13.30;9.03;;;;;;;;;;1635046;87;21905;-66
2022/09/30 06:31:15;;;;;;;14.60;8.88;;;;;;;;;;1632440;87;21056;-66
2022/09/30 06:33:42;;;;;;;13.60;9.18;;;;;;;;;;1634294;87;21587;-66
2022/09/30 06:36:08;;;;;;;13.58;9.20;;;;;;;;;;1632822;87;21072;-66
2022/09/30 06:38:38;;;;;;;14.40;8.63;;;;;;;;;;1635397;87;21135;-65
2022/09/30 06:41:05;;;;;;;11.28;9.15;;;;;;;;;;1632950;87;21607;-64
2022/09/30 06:43:31;;;;;;;12.20;7.95;;;;;;;;;;1631678;87;21079;-65
2022/09/30 06:46:00;;;;;;;13.20;9.13;;;;;;;;;;1635845;87;21638;-65
2022/09/30 06:48:28;;;;;;;13.32;9.28;;;;;;;;;;1632466;87;21072;-65
2022/09/30 06:50:56;;;;;;;12.93;9.15;;;;;;;;;;1630606;87;21885;-64
2022/09/30 06:53:22;;;;;;;12.45;7.70;;;;;;;;;;1633572;87;21623;-65
2022/09/30 06:55:48;;;;;;;13.05;8.93;;;;;;;;;;1635544;87;21116;-65
2022/09/30 06:58:14;;;;;;;15.28;9.93;;;;;;;;;;1608623;88;21048;-65
2022/09/30 07:00:41;;;;;;;15.25;9.63;;;;;;;;;;1631330;87;21128;-65
2022/09/30 07:03:11;;;;;;;13.62;9.60;;;;;;;;;;1637157;86;21204;-65
2022/09/30 07:05:37;;;;;;;13.48;9.50;;;;;;;;;;1620176;86;21025;-65
2022/09/30 07:08:03;;;;;;;13.13;9.40;;;;;;;;;;1640832;85;21072;-65
2022/09/30 07:10:31;;;;;;;14.38;9.93;;;;;;;;;;1614641;86;21217;-66
2022/09/30 07:13:01;;;;;;;11.78;9.25;;;;;;;;;;1602396;87;21181;-66
2022/09/30 07:15:26;;;;;;;14.93;10.82;;;;;;;;;;1600804;87;21551;-66
2022/09/30 07:17:55;;;;;;;14.20;10.40;;;;;;;;;;1597585;88;21049;-65
2022/09/30 07:20:21;;;;;;;13.30;9.93;;;;;;;;;;1609396;87;21022;-65
2022/09/30 07:22:48;;;;;;;15.43;10.45;;;;;;;;;;1638234;85;21611;-65
2022/09/30 07:25:14;;;;;;;15.35;9.83;;;;;;;;;;1640328;85;21104;-65
2022/09/30 07:27:40;;;;;;;13.85;9.18;;;;;;;;;;1647856;85;21153;-65
2022/09/30 07:30:07;;;;;;;15.35;10.03;;;;;;;;;;1640489;85;21249;-64
2022/09/30 07:32:33;;;;;;;15.83;10.10;;;;;;;;;;1632930;85;21047;-66
2022/09/30 07:34:59;;;;;;;12.90;9.23;;;;;;;;;;1649553;85;21053;-66
2022/09/30 07:37:25;;;;;;;17.27;10.00;;;;;;;;;;1649604;84;21578;-66
2022/09/30 07:39:51;;;;;;;16.00;10.20;;;;;;;;;;1646244;85;21016;-66
2022/09/30 07:42:21;;;;;;;13.68;10.78;;;;;;;;;;1641359;86;21060;-66
2022/09/30 07:44:49;;;;;;;14.98;10.20;;;;;;;;;;1640228;86;21063;-65
2022/09/30 07:47:15;;;;;;;11.45;9.53;;;;;;;;;;1646427;84;21035;-65
2022/09/30 07:49:42;;;;;;;16.93;11.10;;;;;;;;;;1635355;86;21042;-65
2022/09/30 07:52:09;;;;;;;14.75;10.28;;;;;;;;;;1635672;86;21057;-67
2022/09/30 07:54:36;;;;;;;14.28;10.20;;;;;;;;;;1639984;85;21115;-66
2022/09/30 07:57:02;;;;;;;13.62;10.65;;;;;;;;;;1634413;86;21510;-67
2022/09/30 07:59:28;;;;;;;14.58;11.50;;;;;;;;;;1636834;86;21151;-66
2022/09/30 08:01:56;;;;;;;14.50;11.60;;;;;;;;;;1644139;85;21565;-65
2022/09/30 08:04:23;;;;;;;17.75;11.30;;;;;;;;;;1649209;85;22170;-67
2022/09/30 08:06:51;;;;;;;14.30;10.75;;;;;;;;;;1641280;86;21055;-67
2022/09/30 08:09:18;;;;;;;12.35;9.90;;;;;;;;;;1638266;85;21040;-67
2022/09/30 08:11:46;;;;;;;13.22;9.10;;;;;;;;;;1633069;86;21659;-65
2022/09/30 08:14:13;;;;;;;16.45;10.03;;;;;;;;;;1646366;84;21807;-67
2022/09/30 08:16:41;;;;;;;16.95;10.93;;;;;;;;;;1647129;85;21609;-66
2022/09/30 08:19:09;;;;;;;15.25;11.18;;;;;;;;;;1641021;85;21081;-67
2022/09/30 08:21:38;;;;;;;13.28;9.50;;;;;;;;;;1635056;85;21131;-65
2022/09/30 08:24:05;;;;;;;17.07;10.10;;;;;;;;;;1645232;84;21087;-66
2022/09/30 08:26:31;;;;;;;16.65;11.03;;;;;;;;;;1641197;86;21070;-67
2022/09/30 08:28:58;;;;;;;14.68;10.13;;;;;;;;;;1641119;84;21091;-66
2022/09/30 08:31:24;;;;;;;16.45;12.30;;;;;;;;;;1655825;84;21523;-67
2022/09/30 08:33:50;;;;;;;13.68;10.60;;;;;;;;;;1651865;85;21017;-68
2022/09/30 08:36:20;;;;;;;14.73;9.23;;;;;;;;;;1654099;85;21089;-67
2022/09/30 08:38:46;;;;;;;13.65;9.33;;;;;;;;;;1636897;86;21537;-65
2022/09/30 08:41:27;;;;;;;15.53;9.48;;;;;;;;;;1633476;86;21115;-66
2022/09/30 08:44:12;;;;;;;12.53;9.53;;;;;;;;;;1634744;85;21041;-67
2022/09/30 08:46:45;;;;;;;13.18;9.63;;;;;;;;;;1642614;86;21080;-66
2022/09/30 08:49:29;;;;;;;16.27;10.05;;;;;;;;;;1628170;86;21127;-67
2022/09/30 08:51:55;;;;;;;13.38;9.98;;;;;;;;;;1626022;86;21896;-66
2022/09/30 08:54:22;;;;;;;12.18;9.55;;;;;;;;;;1640176;86;21053;-66
2022/09/30 08:56:48;;;;;;;13.88;10.43;;;;;;;;;;1640753;85;21021;-66
2022/09/30 08:59:25;;;;;;;15.03;10.35;;;;;;;;;;1631076;86;21651;-67
2022/09/30 09:01:52;;;;;;;16.37;10.30;;;;;;;;;;1639292;85;21208;-64
2022/09/30 09:04:18;;;;;;;14.05;9.80;;;;;;;;;;1636879;86;21099;-65
2022/09/30 09:06:53;;;;;;;16.30;10.25;;;;;;;;;;1642507;85;21072;-65
2022/09/30 09:09:23;;;;;;;11.22;8.93;;;;;;;;;;1641389;85;21699;-64
2022/09/30 09:12:09;;;;;;;12.70;10.00;;;;;;;;;;1608925;87;21207;-64
2022/09/30 09:14:43;;;;;;;14.18;10.60;;;;;;;;;;1632762;85;21571;-65
2022/09/30 09:17:27;;;;;;;14.70;10.55;;;;;;;;;;1634931;85;21081;-64
2022/09/30 09:19:55;;;;;;;13.72;10.55;;;;;;;;;;1634474;85;21019;-66
2022/09/30 09:22:21;;;;;;;13.48;9.75;;;;;;;;;;1631447;85;21135;-65
2022/09/30 09:24:49;;;;;;;14.13;9.65;;;;;;;;;;1639257;85;21084;-65
2022/09/30 09:27:17;;;;;;;13.72;11.03;;;;;;;;;;1647173;84;21015;-64
2022/09/30 09:29:54;;;;;;;17.10;11.03;;;;;;;;;;1652793;84;21576;-64
2022/09/30 09:32:20;;;;;;;14.38;10.63;;;;;;;;;;1631796;86;21040;-65
2022/09/30 09:34:50;;;;;;;16.20;10.98;;;;;;;;;;1643428;85;21124;-65
2022/09/30 09:40:28;;;;;;;15.48;13.10;;;;;;;;;;1627291;86;21172;-63
2022/09/30 09:43:00;;;;;;;15.43;11.15;;;;;;;;;;1617664;86;22192;-64
2022/09/30 09:45:45;;;;;;;17.25;11.08;;;;;;;;;;1625382;85;21001;-64
2022/09/30 09:48:12;;;;;;;16.70;10.50;;;;;;;;;;1628958;86;21036;-63
2022/09/30 09:50:40;;;;;;;16.60;10.40;;;;;;;;;;1633803;86;21048;-64
2022/09/30 09:53:15;;;;;;;16.35;11.45;;;;;;;;;;1630419;85;21570;-64
2022/09/30 09:55:41;;;;;;;15.72;10.85;;;;;;;;;;1643439;85;21079;-62
2022/09/30 09:58:12;;;;;;;15.63;11.55;;;;;;;;;;1643811;86;21595;-62
2022/09/30 10:03:23;;;;;;;17.32;12.82;;;;;;;;;;1594479;88;21690;-64
2022/09/30 10:06:01;;;;;;;16.73;11.60;;;;;;;;;;1631094;86;21044;-64
2022/09/30 10:08:31;;;;;;;17.30;10.93;;;;;;;;;;1639325;85;22331;-65
2022/09/30 10:10:58;;;;;;;15.90;10.98;;;;;;;;;;1608755;87;21193;-64
2022/09/30 10:13:26;;;;;;;16.17;12.58;;;;;;;;;;1579075;88;21141;-64
2022/09/30 10:15:53;;;;;;;15.28;12.47;;;;;;;;;;1609210;87;21725;-65
2022/09/30 10:18:21;;;;;;;16.17;10.75;;;;;;;;;;1642084;86;21051;-64
2022/09/30 10:20:49;;;;;;;13.95;10.80;;;;;;;;;;1617382;86;21065;-64
2022/09/30 10:23:19;;;;;;;11.88;9.85;;;;;;;;;;1636034;85;21112;-65
2022/09/30 10:25:59;;;;;;;11.88;9.18;;;;;;;;;;1645133;85;21134;-64
2022/09/30 10:28:27;;;;;;;15.72;10.25;;;;;;;;;;1654372;85;21590;-65
2022/09/30 10:30:57;;;;;;;14.63;10.63;;;;;;;;;;1659551;84;21081;-64
2022/09/30 10:33:32;;;;;;;13.53;10.28;;;;;;;;;;1636799;85;21096;-63
2022/09/30 10:36:00;;;;;;;13.55;9.28;;;;;;;;;;1642086;85;21085;-63
2022/09/30 10:38:33;;;;;;;13.62;10.25;;;;;;;;;;1643951;85;21109;-65
2022/09/30 10:40:55;;;;;;;14.15;11.00;;;;;;;;;;1629310;86;21573;-65
2022/09/30 10:43:26;;;;;;;14.13;10.90;;;;;;;;;;1637933;86;21064;-64
2022/09/30 10:45:52;;;;;;;15.88;11.73;;;;;;;;;;1636445;84;21643;-64
2022/09/30 10:48:18;;;;;;;14.58;11.50;;;;;;;;;;1634153;84;21109;-64
2022/09/30 10:50:49;;;;;;;14.87;10.18;;;;;;;;;;1644882;84;21076;-64
2022/09/30 10:53:22;;;;;;;10.58;8.23;;;;;;;;;;1633353;86;21612;-63
2022/09/30 10:55:48;;;;;;;;;;;;;;;;;;1647212;85;21068;-64
2022/09/30 10:58:23;;;;;;;8.28;6.40;;;;;;;;;;1641807;85;20161;-63
2022/09/30 11:00:49;;;;;;;12.20;7.42;;;;;;;;;;1626241;86;21154;-63
2022/09/30 11:03:17;;;;;;;10.10;7.53;;;;;;;;;;1653810;84;21532;-64
2022/09/30 11:05:43;;;;;;;13.85;8.45;;;;;;;;;;1640203;85;21742;-64
2022/09/30 11:08:11;;;;;;;12.00;8.30;;;;;;;;;;1639466;85;21084;-64
2022/09/30 11:10:57;;;;;;;9.85;6.58;;;;;;;;;;1638274;86;21276;-63
2022/09/30 11:13:31;;;;;;;12.55;6.95;;;;;;;;;;1637952;85;21148;-64
2022/09/30 11:16:01;;;;;;;18.12;10.00;;;;;;;;;;1640139;86;21092;-63
2022/09/30 11:18:39;;;;;;;11.15;7.95;;;;;;;;;;1635233;86;21608;-64
2022/09/30 11:21:07;;;;;;;10.25;7.37;;;;;;;;;;1641619;85;21029;-63
2022/09/30 11:23:35;;;;;;;13.45;7.22;;;;;;;;;;1637032;85;21171;-64
2022/09/30 11:26:09;;;;;;;13.03;7.65;;;;;;;;;;1644061;86;21953;-64
2022/09/30 11:28:52;;;;;;;10.82;7.20;;;;;;;;;;1599358;87;21397;-64
2022/09/30 11:31:22;;;;;;;17.37;8.28;;;;;;;;;;1641959;85;21097;-66
2022/09/30 11:33:51;;;;;;;10.95;6.90;;;;;;;;;;1640366;86;21060;-67
2022/09/30 11:36:33;;;;;;;11.65;6.58;;;;;;;;;;1641993;85;21048;-67
2022/09/30 11:39:04;;;;;;;11.78;7.58;;;;;;;;;;1639952;86;21079;-67
2022/09/30 11:41:50;;;;;;;8.58;6.85;;;;;;;;;;1625889;85;21052;-67
2022/09/30 11:44:33;;;;;;;10.50;6.78;;;;;;;;;;1639292;85;21543;-67
2022/09/30 11:47:07;;;;;;;9.40;6.95;;;;;;;;;;1631396;86;21582;-66
2022/09/30 11:49:47;;;;;;;10.65;7.05;;;;;;;;;;1630343;86;21072;-67
2022/09/30 11:52:24;;;;;;;10.45;7.58;;;;;;;;;;1643041;85;21580;-67
2022/09/30 11:54:54;;;;;;;8.95;7.15;;;;;;;;;;1646089;85;21376;-66
2022/09/30 11:57:24;;;;;;;12.10;7.90;;;;;;;;;;1636295;86;21104;-66
2022/09/30 11:59:54;;;;;;;10.65;8.20;;;;;;;;;;1637323;85;21041;-67
2022/09/30 12:02:25;;;;;;;9.88;8.13;;;;;;;;;;1637413;85;21270;-66
2022/09/30 12:04:54;;;;;;;13.28;8.13;;;;;;;;;;1634369;86;21519;-68
2022/09/30 12:07:23;;;;;;;12.90;7.58;;;;;;;;;;1633037;87;21040;-68
2022/09/30 12:09:51;;;;;;;9.33;7.28;;;;;;;;;;1640381;86;21060;-68
2022/09/30 12:12:17;;;;;;;15.45;8.48;;;;;;;;;;1633116;86;21092;-70
2022/09/30 12:15:00;;;;;;;9.90;7.55;;;;;;;;;;1637477;85;21048;-69
2022/09/30 12:17:40;;;;;;;9.08;6.67;;;;;;;;;;1638591;84;21043;-70
2022/09/30 12:20:18;;;;;;;10.38;8.03;;;;;;;;;;1634322;85;21080;-69
2022/09/30 12:22:46;;;;;;;12.78;8.18;;;;;;;;;;1626710;86;21166;-68
2022/09/30 12:30:16;;;;;;;11.88;8.03;;;;;;;;;;1814463;79;22755;-68
2022/09/30 12:30:36;;;;;;;10.58;7.00;;;;;;;;;;1783826;80;21490;-68
2022/09/30 12:33:10;;;;;;;8.00;7.17;;;;;;;;;;1773673;80;21075;-68
2022/09/30 12:35:38;;;;;;;12.37;7.37;;;;;;;;;;1775733;80;20979;-68
2022/09/30 12:38:06;;;;;;;9.33;7.97;;;;;;;;;;1782087;80;21040;-67
2022/09/30 12:40:33;;;;;;;12.88;7.80;;;;;;;;;;1786637;80;21012;-68
2022/09/30 12:43:10;;;;;;;10.70;8.00;;;;;;;;;;1778210;80;20996;-68
2022/09/30 12:45:48;;;;;;;7.97;6.50;;;;;;;;;;1765638;80;21085;-68
2022/09/30 12:48:15;;;;;;;9.48;6.30;;;;;;;;;;1775558;80;21091;-68
2022/09/30 12:50:47;;;;;;;11.30;6.10;;;;;;;;;;1777520;80;21091;-69
2022/09/30 12:53:17;;;;;;;10.35;6.50;;;;;;;;;;1784657;80;21598;-69
2022/09/30 12:55:43;;;;;;;8.35;6.55;;;;;;;;;;1789586;80;21654;-69
2022/09/30 12:58:11;;;;;;;7.83;6.70;;;;;;;;;;1784600;80;21468;-68
2022/09/30 13:00:37;;;;;;;10.10;7.60;;;;;;;;;;1763449;79;21047;-71
2022/09/30 13:03:07;;;;;;;8.45;6.15;;;;;;;;;;1755154;80;21024;-67
2022/09/30 13:05:36;;;;;;;8.65;6.25;;;;;;;;;;1754555;81;21062;-67
2022/09/30 13:08:06;;;;;;;11.95;8.73;;;;;;;;;;1750666;81;21109;-68
2022/09/30 13:10:40;;;;;;;11.50;8.48;;;;;;;;;;1751192;80;21083;-65
2022/09/30 13:13:11;;;;;;;11.90;9.83;;;;;;;;;;1752787;80;20997;-66
2022/09/30 13:15:39;;;;;;;11.73;10.03;;;;;;;;;;1760106;81;21035;-66
2022/09/30 13:18:25;;;;;;;14.23;10.05;;;;;;;;;;1751026;81;21057;-66
2022/09/30 13:23:43;;;;;;;10.93;9.13;;;;;;;;;;1718772;78;75980;-66
2022/09/30 13:26:23;;;;;;;11.43;7.42;;;;;;;;;;1717585;81;21538;-66
2022/09/30 13:28:50;;;;;;;13.43;8.45;;;;;;;;;;1712458;83;21119;-67
2022/09/30 13:31:17;;;;;;;8.85;7.42;;;;;;;;;;1709460;82;21020;-67
2022/09/30 13:33:45;;;;;;;11.88;8.85;;;;;;;;;;1721479;81;21024;-68
2022/09/30 13:36:15;;;;;;;13.30;9.00;;;;;;;;;;1717607;81;21562;-68
2022/09/30 13:38:41;;;;;;;12.03;9.58;;;;;;;;;;1718529;83;21103;-68
2022/09/30 13:41:19;;;;;;;11.78;9.08;;;;;;;;;;1708884;82;21080;-67
2022/09/30 13:43:52;;;;;;;11.50;8.30;;;;;;;;;;1718942;82;21665;-68
2022/09/30 13:46:31;;;;;;;14.25;8.68;;;;;;;;;;1709078;83;21099;-66
2022/09/30 13:49:01;;;;;;;10.98;8.43;;;;;;;;;;1720702;83;21067;-67
2022/09/30 13:51:28;;;;;;;12.43;9.45;;;;;;;;;;1719885;82;21071;-67
2022/09/30 13:53:57;;;;;;;12.45;8.80;;;;;;;;;;1717946;81;21582;-68
2022/09/30 13:56:28;;;;;;;11.95;9.55;;;;;;;;;;1709245;83;21022;-68
2022/09/30 13:58:59;;;;;;;13.70;9.43;;;;;;;;;;1704139;83;21055;-67
2022/09/30 14:01:31;;;;;;;10.53;8.08;;;;;;;;;;1720833;83;21021;-68
2022/09/30 14:04:08;;;;;;;13.00;7.72;;;;;;;;;;1716567;83;21031;-68
2022/09/30 14:06:37;;;;;;;13.65;8.83;;;;;;;;;;1718605;82;21055;-67
2022/09/30 14:09:11;;;;;;;14.75;8.73;;;;;;;;;;1721412;81;21052;-67
2022/09/30 14:11:39;;;;;;;11.43;9.65;;;;;;;;;;1722333;83;21036;-67
2022/09/30 14:14:06;;;;;;;11.97;10.00;;;;;;;;;;1715551;81;21039;-68
2022/09/30 14:16:51;;;;;;;20.57;17.20;;;;;;;;;;1720161;82;21626;-66
2022/09/30 14:19:34;;;;;;;16.30;11.35;;;;;;;;;;1725929;81;21175;-67
2022/09/30 14:22:04;;;;;;;11.08;9.10;;;;;;;;;;1732591;82;21509;-67
2022/09/30 14:24:34;;;;;;;11.30;9.00;;;;;;;;;;1756030;81;22129;-67
2022/09/30 14:27:02;;;;;;;11.48;8.83;;;;;;;;;;1760719;81;21563;-67
2022/09/30 14:29:33;;;;;;;10.55;8.90;;;;;;;;;;1760964;81;22055;-68
2022/09/30 14:31:59;;;;;;;13.75;9.93;;;;;;;;;;1761135;81;21026;-68
2022/09/30 14:34:26;;;;;;;15.80;11.08;;;;;;;;;;1765006;81;21611;-68
2022/09/30 14:36:52;;;;;;;15.18;10.85;;;;;;;;;;1761633;81;21283;-67
2022/09/30 14:39:23;;;;;;;14.75;9.20;;;;;;;;;;1757797;80;21004;-66
2022/09/30 14:41:55;;;;;;;12.28;9.00;;;;;;;;;;1760939;81;21544;-66
2022/09/30 14:44:21;;;;;;;13.88;10.98;;;;;;;;;;1760884;80;21035;-66
2022/09/30 14:46:47;;;;;;;15.83;11.57;;;;;;;;;;1711583;83;21055;-66
2022/09/30 14:49:18;;;;;;;14.13;11.73;;;;;;;;;;1751288;81;21064;-67
2022/09/30 14:51:45;;;;;;;14.63;10.43;;;;;;;;;;1759854;81;21334;-67
2022/09/30 14:54:19;;;;;;;15.93;10.95;;;;;;;;;;1758989;81;21023;-67
2022/09/30 14:56:47;;;;;;;13.75;10.32;;;;;;;;;;1754814;80;21031;-68
2022/09/30 14:59:17;;;;;;;15.00;10.55;;;;;;;;;;1758777;81;21067;-68
2022/09/30 15:01:44;;;;;;;14.98;11.68;;;;;;;;;;1761291;81;20999;-68